Latest Weather Observations for Spitfire Channel

IDQ60801

Issued at 3:02 am EST Thursday 28 May 2020 (issued every 10 minutes, with the page automatically refreshed every 10 minutes)

About weather observations | Map of weather stations | Latest weather observations for QLD | Other Formats
Station Details ID: 040927 Name: SPITFIRE CHANNEL BEACON Lat: -27.05 Lon: 153.27 Height: 7.0 m
Data from the previous 72 hours. | See also: Recent months at Spitfire Channel
Date/Time
EST
Temp
°C
App
Temp
°C
Dew
Point
°C
Rel
Hum
%
Delta-T
°C
Wind Press
QNH
hPa
Press
MSL
hPa
Rain since
9am
mm
Dir  Spd
km/h
Gust
km/h
Spd
kts
Gust
kts
28/03:00am - - - - - SW 7 9 4 5 - - -
28/02:30am - - - - - SW 6 7 3 4 - - -
28/02:00am - - - - - WSW 4 6 2 3 - - -
28/01:30am - - - - - WSW 6 7 3 4 - - -
28/01:00am - - - - - CALM 0 6 0 3 - - -
28/12:30am - - - - - SSW 2 4 1 2 - - -
28/12:00am - - - - - SW 6 7 3 4 - - -
 
Date/Time
EST
Temp
°C
App
Temp
°C
Dew
Point
°C
Rel
Hum
%
Delta-T
°C
Wind Press
QNH
hPa
Press
MSL
hPa
Rain since
9am
mm
Dir  Spd
km/h
Gust
km/h
Spd
kts
Gust
kts
27/11:30pm - - - - - SW 7 7 4 4 - - -
27/11:00pm - - - - - WSW 9 9 5 5 - - -
27/10:30pm - - - - - WSW 9 11 5 6 - - -
27/10:00pm - - - - - N 7 9 4 5 - - -
27/09:30pm - - - - - N 9 9 5 5 - - -
27/09:00pm - - - - - N 11 13 6 7 - - -
27/08:30pm - - - - - N 13 15 7 8 - - -
27/08:00pm - - - - - N 13 15 7 8 - - -
27/07:30pm - - - - - N 11 13 6 7 - - -
27/07:00pm - - - - - N 9 11 5 6 - - -
27/06:30pm - - - - - N 13 13 7 7 - - -
27/06:00pm - - - - - NNE 13 17 7 9 - - -
27/05:30pm - - - - - NNE 13 15 7 8 - - -
27/05:00pm - - - - - NNE 15 17 8 9 - - -
27/04:30pm - - - - - ENE 6 7 3 4 - - -
27/04:00pm - - - - - SE 7 7 4 4 - - -
27/03:30pm - - - - - SSE 9 9 5 5 - - -
27/03:00pm - - - - - SE 9 11 5 6 - - -
27/02:30pm - - - - - SE 9 11 5 6 - - -
27/02:00pm - - - - - SSE 7 9 4 5 - - -
27/01:30pm - - - - - SSE 9 11 5 6 - - -
27/01:00pm - - - - - S 9 11 5 6 - - -
27/12:30pm - - - - - SSE 9 13 5 7 - - -
27/12:00pm - - - - - S 6 7 3 4 - - -
27/11:30am - - - - - S 4 6 2 3 - - -
27/11:00am - - - - - SSW 4 6 2 3 - - -
27/10:30am - - - - - SSW 6 6 3 3 - - -
27/10:00am - - - - - SW 6 7 3 4 - - -
27/09:30am - - - - - WSW 6 7 3 4 - - -
27/09:00am - - - - - W 4 7 2 4 - - -
27/08:30am - - - - - W 4 6 2 3 - - -
27/08:00am - - - - - WSW 2 4 1 2 - - -
27/07:30am - - - - - SW 9 11 5 6 - - -
27/07:00am - - - - - W 13 15 7 8 - - -
27/06:30am - - - - - W 11 15 6 8 - - -
27/06:00am - - - - - WNW 7 11 4 6 - - -
27/05:30am - - - - - CALM 0 2 0 1 - - -
27/05:00am - - - - - S 2 4 1 2 - - -
27/04:30am - - - - - SSW 7 9 4 5 - - -
27/04:00am - - - - - SSW 11 13 6 7 - - -
27/03:30am - - - - - SW 11 13 6 7 - - -
27/03:00am - - - - - WSW 9 13 5 7 - - -
27/02:30am - - - - - W 17 19 9 10 - - -
27/02:00am - - - - - W 17 19 9 10 - - -
27/01:30am - - - - - W 15 19 8 10 - - -
27/01:00am - - - - - W 17 20 9 11 - - -
27/12:30am - - - - - W 15 19 8 10 - - -
27/12:00am - - - - - W 19 22 10 12 - - -
 
Date/Time
EST
Temp
°C
App
Temp
°C
Dew
Point
°C
Rel
Hum
%
Delta-T
°C
Wind Press
QNH
hPa
Press
MSL
hPa
Rain since
9am
mm
Dir  Spd
km/h
Gust
km/h
Spd
kts
Gust
kts
26/11:30pm - - - - - WNW 17 20 9 11 - - -
26/11:00pm - - - - - WNW 15 19 8 10 - - -
26/10:30pm - - - - - W 15 19 8 10 - - -
26/10:00pm - - - - - WNW 15 19 8 10 - - -
26/09:30pm - - - - - W 15 19 8 10 - - -
26/09:00pm - - - - - WNW 17 19 9 10 - - -
26/08:30pm - - - - - WNW 19 20 10 11 - - -
26/08:00pm - - - - - NW 15 17 8 9 - - -
26/07:30pm - - - - - NW 9 13 5 7 - - -
26/07:00pm - - - - - NNW 13 15 7 8 - - -
26/06:30pm - - - - - N 13 15 7 8 - - -
26/06:00pm - - - - - N 11 13 6 7 - - -
26/05:30pm - - - - - N 11 13 6 7 - - -
26/05:00pm - - - - - N 13 17 7 9 - - -
26/04:30pm - - - - - N 13 15 7 8 - - -
26/04:00pm - - - - - N 13 15 7 8 - - -
26/03:30pm - - - - - N 11 15 6 8 - - -
26/03:00pm - - - - - N 9 11 5 6 - - -
26/02:30pm - - - - - NNE 7 9 4 5 - - -
26/02:00pm - - - - - CALM 0 2 0 1 - - -
26/01:30pm - - - - - CALM 0 4 0 2 - - -
26/01:00pm - - - - - CALM 0 0 0 0 - - -
26/12:30pm - - - - - SSE 4 6 2 3 - - -
26/12:00pm - - - - - S 6 9 3 5 - - -
26/11:30am - - - - - CALM 0 0 0 0 - - -
26/11:00am - - - - - SW 7 9 4 5 - - -
26/10:30am - - - - - WSW 9 11 5 6 - - -
26/10:00am - - - - - W 13 17 7 9 - - -
26/09:30am - - - - - W 15 19 8 10 - - -
26/09:00am - - - - - W 17 20 9 11 - - -
26/08:30am - - - - - W 17 20 9 11 - - -
26/08:00am - - - - - WSW 19 22 10 12 - - -
26/07:30am - - - - - W 22 24 12 13 - - -
26/07:00am - - - - - W 22 24 12 13 - - -
26/06:30am - - - - - W 24 28 13 15 - - -
26/06:00am - - - - - W 24 28 13 15 - - -
26/05:30am - - - - - W 22 26 12 14 - - -
26/05:00am - - - - - WSW 22 26 12 14 - - -
26/04:30am - - - - - W 22 26 12 14 - - -
26/04:00am - - - - - W 24 28 13 15 - - -
26/03:30am - - - - - WSW 17 20 9 11 - - -
26/03:00am - - - - - WSW 17 20 9 11 - - -
26/02:30am - - - - - W 17 19 9 10 - - -
26/02:00am - - - - - W 17 20 9 11 - - -
26/01:30am - - - - - W 19 20 10 11 - - -
26/01:00am - - - - - W 17 19 9 10 - - -
26/12:30am - - - - - W 20 24 11 13 - - -
26/12:00am - - - - - W 20 22 11 12 - - -
 
Date/Time
EST
Temp
°C
App
Temp
°C
Dew
Point
°C
Rel
Hum
%
Delta-T
°C
Wind Press
QNH
hPa
Press
MSL
hPa
Rain since
9am
mm
Dir  Spd
km/h
Gust
km/h
Spd
kts
Gust
kts
25/11:30pm - - - - - W 17 20 9 11 - - -
25/11:00pm - - - - - WNW 19 22 10 12 - - -
25/10:30pm - - - - - WNW 17 19 9 10 - - -
25/10:00pm - - - - - WNW 19 22 10 12 - - -
25/09:30pm - - - - - WNW 20 24 11 13 - - -
25/09:00pm - - - - - WNW 20 26 11 14 - - -
25/08:30pm - - - - - NW 24 28 13 15 - - -
25/08:00pm - - - - - NW 17 20 9 11 - - -
25/07:30pm - - - - - NNW 17 20 9 11 - - -
25/07:00pm - - - - - NNW 17 20 9 11 - - -
25/06:30pm - - - - - NNW 15 17 8 9 - - -
25/06:00pm - - - - - N 13 15 7 8 - - -
25/05:30pm - - - - - NNE 13 13 7 7 - - -
25/05:00pm - - - - - NNE 9 11 5 6 - - -
25/04:30pm - - - - - NNE 9 11 5 6 - - -
25/04:00pm - - - - - NE 6 6 3 3 - - -
25/03:30pm - - - - - NE 6 6 3 3 - - -
25/03:00pm - - - - - ENE 2 4 1 2 - - -
25/02:30pm - - - - - ENE 4 6 2 3 - - -
25/02:00pm - - - - - E 6 6 3 3 - - -
25/01:30pm - - - - - SE 4 4 2 2 - - -
25/01:00pm - - - - - SE 6 7 3 4 - - -
25/12:30pm - - - - - S 4 6 2 3 - - -
25/12:00pm - - - - - S 6 7 3 4 - - -
25/11:30am - - - - - S 7 9 4 5 - - -
25/11:00am - - - - - SSW 6 7 3 4 - - -
25/10:30am - - - - - S 9 11 5 6 - - -
25/10:00am - - - - - SSW 13 17 7 9 - - -
25/09:30am - - - - - SSW 9 11 5 6 - - -
25/09:00am - - - - - SSW 7 9 4 5 - - -
25/08:30am - - - - - SW 6 9 3 5 - - -
25/08:00am - - - - - SW 9 11 5 6 - - -
25/07:30am - - - - - SW 13 15 7 8 - - -
25/07:00am - - - - - WSW 9 11 5 6 - - -
25/06:30am - - - - - WSW 7 9 4 5 - - -
25/06:00am - - - - - SSW 13 15 7 8 - - -
25/05:30am - - - - - SW 13 17 7 9 - - -
25/05:00am - - - - - WSW 15 17 8 9 - - -
25/04:30am - - - - - WSW 17 19 9 10 - - -
25/04:00am - - - - - WSW 20 24 11 13 - - -
25/03:30am - - - - - WSW 20 24 11 13 - - -

Other formats

Comma delimited format used in spreadsheet applications
http://www.bom.gov.au/fwo/IDQ60801/IDQ60801.94581.axf

JavaScript Object Notation format (JSON) in row-major order
http://www.bom.gov.au/fwo/IDQ60801/IDQ60801.94581.json

Data quality

Most of these data are generated automatically and are frequently updated. Quality checks on data are not normally performed. It is possible for incorrect values to appear. Refer to information at About Latest Weather Observations and please check the disclaimer before using these data.